Time;durP1;ratioP1;P1;durP2;ratioP2;P2;SDS_P1;SDS_P2;PMS_P1;PMS_P2;Temp;Humidity;BMP_temperature;BMP_pressure;BME280_temperature;BME280_humidity;BME280_pressure;Samples;Min_cycle;Max_cycle;Signal;HPM_P1;HPM_P2
2022/09/12 00:03:31;;;;;;;38.00;22.08;;;;;;;14.48;100.00;100733.91;8295045;28;20081;-50
2022/09/12 00:07:31;;;;;;;33.25;21.40;;;;;;;14.44;100.00;100730.66;8294450;28;20495;-49
2022/09/12 00:11:36;;;;;;;34.38;21.52;;;;;;;14.46;100.00;100728.66;8288106;28;20033;-50
2022/09/12 00:15:37;;;;;;;;;;;;;;;14.43;100.00;100723.53;8295172;28;20041;-50
2022/09/12 00:19:37;;;;;;;35.28;22.23;;;;;;;14.39;100.00;100716.69;8293253;28;19971;-52
2022/09/12 00:23:38;;;;;;;32.55;21.85;;;;;;;14.30;100.00;100717.63;8293413;28;20058;-51
2022/09/12 00:27:38;;;;;;;37.28;21.85;;;;;;;14.34;100.00;100720.91;8293069;28;20443;-49
2022/09/12 00:31:39;;;;;;;36.10;22.10;;;;;;;14.32;100.00;100725.63;8294981;28;20026;-49
2022/09/12 00:35:42;;;;;;;32.30;21.63;;;;;;;14.27;100.00;100717.97;8290049;28;20038;-50
2022/09/12 00:39:42;;;;;;;36.80;22.90;;;;;;;14.24;100.00;100707.41;8291633;28;20115;-49
2022/09/12 00:43:46;;;;;;;33.78;22.35;;;;;;;14.21;100.00;100707.69;8293799;28;20042;-50
2022/09/12 00:47:47;;;;;;;36.42;21.42;;;;;;;14.14;100.00;100700.31;8286542;28;20117;-53
2022/09/12 00:51:55;;;;;;;34.03;22.52;;;;;;;14.17;100.00;100706.31;8291753;28;20538;-50
2022/09/12 00:55:56;;;;;;;37.13;23.10;;;;;;;14.19;100.00;100696.13;8294118;28;20026;-52
2022/09/12 01:00:07;;;;;;;33.35;22.60;;;;;;;14.14;100.00;100695.75;8292682;28;20037;-50
2022/09/12 01:04:09;;;;;;;33.53;22.15;;;;;;;14.10;100.00;100696.22;8287619;28;20042;-51
2022/09/12 01:08:10;;;;;;;35.88;21.35;;;;;;;14.14;100.00;100695.75;8291277;28;20060;-52
2022/09/12 01:12:13;;;;;;;32.05;21.42;;;;;;;14.07;100.00;100697.41;8290817;28;20125;-51
2022/09/12 01:16:14;;;;;;;33.83;21.27;;;;;;;13.99;100.00;100697.31;8290248;28;20030;-54
2022/09/12 01:20:44;;;;;;;34.08;22.15;;;;;;;13.87;100.00;100682.28;8293016;28;20677;-51
2022/09/12 01:25:25;;;;;;;37.85;22.35;;;;;;;13.84;100.00;100688.03;8292441;28;20046;-53
2022/09/12 01:29:56;;;;;;;38.78;23.33;;;;;;;13.87;100.00;100687.72;8292440;28;20029;-52
2022/09/12 01:34:08;;;;;;;37.15;22.38;;;;;;;13.72;100.00;100683.84;8287124;28;20045;-53
2022/09/12 01:38:30;;;;;;;38.28;22.33;;;;;;;13.71;100.00;100682.16;8291638;28;20136;-53
2022/09/12 01:42:39;;;;;;;38.58;23.50;;;;;;;13.72;100.00;100678.41;8287942;28;20411;-51
2022/09/12 01:47:04;;;;;;;34.15;22.02;;;;;;;13.61;100.00;100675.94;8292196;28;20034;-50
2022/09/12 01:55:42;;;;;;;45.10;24.48;;;;;;;13.51;100.00;100661.59;8326148;27;20519;-50
2022/09/12 01:59:47;;;;;;;41.65;23.95;;;;;;;13.57;100.00;100666.38;8310715;28;20034;-52
2022/09/12 02:03:56;;;;;;;41.60;24.80;;;;;;;13.61;100.00;100656.94;8318518;28;20046;-54
2022/09/12 02:12:18;;;;;;;41.30;24.02;;;;;;;13.58;100.00;100657.25;8400696;27;20398;-52
2022/09/12 02:16:28;;;;;;;45.28;24.60;;;;;;;13.59;100.00;100656.22;8401020;27;20043;-53
2022/09/12 02:20:32;;;;;;;44.53;25.17;;;;;;;13.56;100.00;100654.69;8384437;28;20059;-53
2022/09/12 02:24:39;;;;;;;42.00;24.60;;;;;;;13.54;100.00;100653.97;8384001;28;20083;-51
2022/09/12 02:28:41;;;;;;;46.92;25.95;;;;;;;13.54;100.00;100642.25;8381833;28;20704;-50
2022/09/12 02:32:54;;;;;;;46.15;25.67;;;;;;;13.55;100.00;100642.09;8354066;28;20064;-53
2022/09/12 02:37:17;;;;;;;45.25;25.38;;;;;;;13.49;100.00;100647.31;8352771;28;20030;-51
2022/09/12 02:41:20;;;;;;;48.03;27.00;;;;;;;13.49;100.00;100647.31;8375910;28;20029;-49
2022/09/12 02:45:22;;;;;;;45.05;26.23;;;;;;;13.50;100.00;100639.00;8385024;28;20037;-50
2022/09/12 02:49:22;;;;;;;52.42;25.83;;;;;;;13.48;100.00;100637.47;8387129;27;20587;-52
2022/09/12 02:53:24;;;;;;;48.50;26.67;;;;;;;13.45;100.00;100637.78;8360641;28;20041;-50
2022/09/12 02:57:24;;;;;;;50.47;27.75;;;;;;;13.46;100.00;100628.63;8357857;28;20440;-51
2022/09/12 03:01:37;;;;;;;49.85;27.42;;;;;;;13.49;100.00;100629.16;8358029;28;20126;-47
2022/09/12 03:05:59;;;;;;;52.47;26.13;;;;;;;13.48;100.00;100632.03;8352702;28;20554;-47
2022/09/12 03:10:14;;;;;;;52.30;27.80;;;;;;;13.49;100.00;100622.88;8352423;28;20495;-47
2022/09/12 03:14:40;;;;;;;49.53;25.98;;;;;;;13.47;100.00;100625.75;8351481;28;20061;-47
2022/09/12 03:18:59;;;;;;;45.65;26.52;;;;;;;13.43;100.00;100623.50;8388651;27;20049;-47
2022/09/12 03:23:07;;;;;;;53.15;28.90;;;;;;;13.45;100.00;100618.78;8363171;28;20596;-48
2022/09/12 03:27:27;;;;;;;50.45;28.15;;;;;;;13.39;100.00;100616.69;8358349;28;20092;-47
2022/09/12 03:31:28;;;;;;;50.85;28.45;;;;;;;13.42;100.00;100625.34;8398438;28;20036;-49
2022/09/12 03:35:28;;;;;;;61.33;28.75;;;;;;;13.45;100.00;100624.22;8353198;28;20056;-47
2022/09/12 03:39:29;;;;;;;55.90;28.10;;;;;;;13.53;100.00;100635.13;8357340;28;20402;-50
2022/09/12 03:43:30;;;;;;;60.63;30.10;;;;;;;13.56;100.00;100626.66;8343533;28;20092;-47
2022/09/12 03:47:30;;;;;;;58.90;29.95;;;;;;;13.50;100.00;100630.00;8336950;28;20568;-47
2022/09/12 03:51:31;;;;;;;55.70;29.65;;;;;;;13.42;100.00;100636.22;8368353;28;20127;-47
2022/09/12 03:55:31;;;;;;;62.75;30.17;;;;;;;13.37;100.00;100634.97;8391501;28;20497;-49
2022/09/12 03:59:32;;;;;;;63.65;30.90;;;;;;;13.34;100.00;100629.88;8367342;28;20533;-50
2022/09/12 04:03:32;;;;;;;61.95;30.65;;;;;;;13.33;100.00;100633.59;8392652;28;20041;-47
2022/09/12 04:07:33;;;;;;;63.90;31.55;;;;;;;13.30;100.00;100617.63;8356713;28;20037;-48
2022/09/12 04:11:34;;;;;;;69.18;32.85;;;;;;;13.24;100.00;100607.38;8355867;28;20479;-47
2022/09/12 04:15:35;;;;;;;69.78;34.47;;;;;;;13.27;100.00;100604.34;8351780;28;20103;-47
2022/09/12 04:19:35;;;;;;;66.93;33.10;;;;;;;13.22;100.00;100603.94;8356780;28;20060;-46
2022/09/12 04:23:36;;;;;;;75.22;34.42;;;;;;;13.19;100.00;100604.25;8368886;28;20068;-46
2022/09/12 04:27:37;;;;;;;75.45;35.20;;;;;;;13.19;100.00;100609.69;8347653;28;20037;-47
2022/09/12 04:31:38;;;;;;;77.25;34.22;;;;;;;13.15;100.00;100602.88;8393404;28;20040;-47
2022/09/12 04:35:38;;;;;;;63.15;32.53;;;;;;;13.20;100.00;100595.09;8351222;28;20052;-48
2022/09/12 04:39:40;;;;;;;72.50;32.65;;;;;;;13.21;100.00;100602.25;8358915;28;20087;-47
2022/09/12 04:43:41;;;;;;;65.30;30.75;;;;;;;13.23;100.00;100605.66;8339264;28;20111;-47
2022/09/12 04:47:41;;;;;;;72.10;32.50;;;;;;;13.20;100.00;100600.53;8349499;28;20466;-46
2022/09/12 04:51:42;;;;;;;67.73;32.00;;;;;;;13.16;100.00;100597.28;8350940;28;20049;-47
2022/09/12 04:55:43;;;;;;;66.05;31.67;;;;;;;13.16;100.00;100588.28;8352406;28;20283;-47
2022/09/12 04:59:43;;;;;;;65.13;31.42;;;;;;;13.13;100.00;100581.31;8332452;28;20418;-48
2022/09/12 05:03:45;;;;;;;62.63;29.10;;;;;;;13.19;100.00;100582.53;8348482;28;20049;-48
2022/09/12 05:07:45;;;;;;;62.83;29.40;;;;;;;13.18;100.00;100584.38;8324585;28;20652;-49
2022/09/12 05:11:46;;;;;;;61.07;31.40;;;;;;;13.18;100.00;100583.56;8347305;28;20399;-50
2022/09/12 05:15:55;;;;;;;60.97;29.40;;;;;;;13.21;100.00;100586.78;8351143;28;20307;-50
2022/09/12 05:19:56;;;;;;;59.33;29.60;;;;;;;13.17;100.00;100596.28;8344026;28;20400;-47
2022/09/12 05:23:58;;;;;;;56.40;27.52;;;;;;;13.14;100.00;100598.44;8349403;28;20074;-47
2022/09/12 05:27:59;;;;;;;54.95;28.73;;;;;;;13.15;100.00;100594.72;8345210;28;20517;-49
2022/09/12 05:31:59;;;;;;;55.67;27.77;;;;;;;13.24;100.00;100591.09;8347081;28;20495;-47
2022/09/12 05:36:01;;;;;;;50.75;26.98;;;;;;;14.12;100.00;100589.00;8348907;28;20597;-50
2022/09/12 05:40:06;;;;;;;44.75;23.88;;;;;;;13.88;100.00;100588.88;8337124;28;20076;-47
2022/09/12 05:44:11;;;;;;;43.72;25.02;;;;;;;13.85;100.00;100591.91;8347914;28;20044;-47
2022/09/12 05:48:11;;;;;;;46.35;24.27;;;;;;;13.95;100.00;100595.38;8336306;28;20301;-47
2022/09/12 05:52:11;;;;;;;42.10;23.73;;;;;;;14.04;100.00;100591.69;8317913;28;20041;-50
2022/09/12 05:56:16;;;;;;;43.30;24.40;;;;;;;14.17;100.00;100602.97;8323842;28;20319;-47
2022/09/12 06:00:17;;;;;;;42.97;23.50;;;;;;;14.17;100.00;100600.25;8333383;28;20033;-47
2022/09/12 06:04:18;;;;;;;42.55;23.10;;;;;;;14.19;100.00;100600.09;8324541;28;20068;-47
2022/09/12 06:08:18;;;;;;;39.95;23.13;;;;;;;14.15;100.00;100605.00;8323707;28;20522;-51
2022/09/12 06:12:19;;;;;;;40.80;22.73;;;;;;;14.23;100.00;100607.81;8325238;28;20064;-47
2022/09/12 06:16:21;;;;;;;43.95;23.25;;;;;;;14.39;100.00;100602.44;8351198;28;20029;-47
2022/09/12 06:20:22;;;;;;;44.22;24.15;;;;;;;14.45;100.00;100600.97;8336960;28;20033;-47
2022/09/12 06:24:22;;;;;;;44.58;24.02;;;;;;;14.43;100.00;100601.13;8331813;28;20041;-47
2022/09/12 06:28:23;;;;;;;47.28;22.73;;;;;;;14.69;100.00;100609.19;8339732;28;20048;-48
2022/09/12 06:32:24;;;;;;;38.25;23.85;;;;;;;14.82;100.00;100615.03;8335183;28;20033;-47
2022/09/12 06:36:27;;;;;;;41.90;22.30;;;;;;;14.94;100.00;100603.66;8341563;28;20052;-48
2022/09/12 06:40:28;;;;;;;38.45;22.80;;;;;;;15.09;100.00;100612.88;8350597;28;20052;-47
2022/09/12 06:44:29;;;;;;;40.75;22.02;;;;;;;15.45;100.00;100614.34;8325548;28;20034;-47
2022/09/12 06:48:30;;;;;;;35.97;21.35;;;;;;;15.58;100.00;100617.41;8342288;28;20040;-47
2022/09/12 06:52:30;;;;;;;36.50;21.13;;;;;;;15.59;100.00;100621.81;8346039;28;20176;-48
2022/09/12 06:56:30;;;;;;;37.92;21.48;;;;;;;15.69;100.00;100617.06;8338828;28;20451;-47
2022/09/12 07:00:31;;;;;;;37.60;22.25;;;;;;;15.81;100.00;100611.25;8361140;28;20052;-50
2022/09/12 07:04:34;;;;;;;36.63;20.23;;;;;;;15.99;100.00;100609.19;8339645;28;20064;-48
2022/09/12 07:08:36;;;;;;;33.90;19.88;;;;;;;16.19;100.00;100610.53;8362981;28;20103;-48
2022/09/12 07:12:36;;;;;;;34.42;19.63;;;;;;;16.32;100.00;100610.81;8378109;28;20090;-50
2022/09/12 07:16:37;;;;;;;36.53;19.33;;;;;;;16.41;100.00;100601.59;8368598;28;20056;-47
2022/09/12 07:20:38;;;;;;;33.83;19.80;;;;;;;16.47;100.00;100609.09;8395372;28;20045;-47
2022/09/12 07:24:40;;;;;;;33.55;20.15;;;;;;;16.53;100.00;100611.13;8392454;28;20029;-47
2022/09/12 07:28:40;;;;;;;36.92;21.52;;;;;;;16.81;100.00;100609.63;8384741;28;20045;-49
2022/09/12 07:32:41;;;;;;;35.92;19.83;;;;;;;17.09;100.00;100613.56;8362820;28;20084;-48
2022/09/12 07:36:41;;;;;;;27.70;18.17;;;;;;;17.21;100.00;100612.13;8362414;28;20088;-47
2022/09/12 07:40:42;;;;;;;36.30;20.10;;;;;;;17.50;100.00;100617.75;8380563;28;20098;-47
2022/09/12 07:44:43;;;;;;;35.53;19.02;;;;;;;17.81;100.00;100610.31;8394665;28;20117;-48
2022/09/12 07:48:44;;;;;;;31.48;18.50;;;;;;;18.14;99.78;100616.34;8392488;28;20046;-48
2022/09/12 07:52:44;;;;;;;31.88;19.23;;;;;;;18.37;98.85;100612.53;8390208;28;20043;-48
2022/09/12 07:56:45;;;;;;;29.63;17.73;;;;;;;18.37;98.53;100612.53;8361484;28;20056;-47
2022/09/12 08:00:45;;;;;;;30.50;17.92;;;;;;;18.34;98.21;100618.34;8388221;28;20510;-49
2022/09/12 08:04:47;;;;;;;32.85;18.38;;;;;;;18.26;100.00;100612.06;8383991;28;20049;-49
2022/09/12 08:08:47;;;;;;;29.65;18.85;;;;;;;18.43;100.00;100606.28;8361577;28;20087;-50
2022/09/12 08:12:49;;;;;;;30.30;19.40;;;;;;;18.64;100.00;100609.13;8379523;28;20041;-47
2022/09/12 08:16:49;;;;;;;28.80;19.02;;;;;;;18.95;97.88;100612.47;8380268;28;20290;-50
2022/09/12 08:20:55;;;;;;;27.42;18.05;;;;;;;19.51;93.85;100615.44;8393536;28;20486;-48
2022/09/12 08:24:56;;;;;;;24.30;17.30;;;;;;;19.64;93.02;100623.81;8391507;28;20044;-47
2022/09/12 08:28:56;;;;;;;27.20;16.60;;;;;;;19.59;92.64;100618.03;8375293;28;20040;-47
2022/09/12 08:32:57;;;;;;;26.83;16.48;;;;;;;19.44;93.45;100615.38;8361370;28;20453;-47
2022/09/12 08:36:57;;;;;;;24.58;15.63;;;;;;;19.55;93.37;100614.00;8379720;28;20040;-47
2022/09/12 08:41:08;;;;;;;22.45;15.43;;;;;;;19.87;92.54;100610.69;8378313;28;20090;-48
2022/09/12 08:45:18;;;;;;;27.08;15.55;;;;;;;20.17;90.90;100615.00;8365001;28;20044;-50
2022/09/12 08:49:33;;;;;;;23.58;15.15;;;;;;;20.29;89.73;100621.63;8388054;28;20047;-47
2022/09/12 08:53:36;;;;;;;20.13;13.20;;;;;;;20.73;87.54;100611.97;8385902;28;20060;-48
2022/09/12 08:57:36;;;;;;;20.13;12.95;;;;;;;21.06;85.89;100612.16;8385424;28;20036;-48
2022/09/12 09:01:42;;;;;;;18.00;12.60;;;;;;;21.35;86.01;100611.84;8381816;28;20044;-47
2022/09/12 09:06:11;;;;;;;27.15;13.55;;;;;;;21.75;83.63;100608.13;8375794;28;20051;-48
2022/09/12 09:10:38;;;;;;;17.13;11.68;;;;;;;21.90;80.67;100600.50;8385567;28;20062;-47
2022/09/12 09:15:02;;;;;;;15.88;10.82;;;;;;;21.96;80.42;100588.63;8384791;28;20565;-48
2022/09/12 09:19:10;;;;;;;13.30;8.93;;;;;;;22.05;77.72;100590.09;8391143;28;20028;-48
2022/09/12 09:23:33;;;;;;;13.55;9.55;;;;;;;22.53;78.03;100576.91;8355005;28;20627;-48
2022/09/12 09:27:42;;;;;;;13.10;8.80;;;;;;;23.99;72.22;100588.66;8384793;28;20042;-48
2022/09/12 09:31:47;;;;;;;11.15;8.13;;;;;;;25.35;67.70;100580.75;8364161;28;20045;-49
2022/09/12 09:36:13;;;;;;;10.93;7.85;;;;;;;27.20;62.80;100586.38;8359770;28;20060;-47
2022/09/12 09:40:23;;;;;;;11.35;7.03;;;;;;;27.65;60.33;100579.78;8373216;28;20056;-47
2022/09/12 09:44:27;;;;;;;9.82;6.55;;;;;;;27.77;61.32;100586.13;8391502;28;20044;-48
2022/09/12 09:48:31;;;;;;;7.90;7.03;;;;;;;28.32;58.41;100569.53;8389638;28;20037;-47
2022/09/12 09:52:34;;;;;;;6.82;5.50;;;;;;;28.86;58.28;100571.47;8391004;28;20068;-47
2022/09/12 09:56:36;;;;;;;8.38;5.68;;;;;;;28.89;56.41;100568.16;8368059;28;20040;-49
2022/09/12 10:00:37;;;;;;;8.07;4.55;;;;;;;28.91;55.62;100552.06;8394668;28;20032;-48
2022/09/12 10:04:40;;;;;;;5.95;4.80;;;;;;;29.05;55.19;100546.94;8358643;28;20037;-48
2022/09/12 10:08:41;;;;;;;7.15;4.40;;;;;;;29.66;54.40;100557.66;8357616;28;20036;-51
2022/09/12 10:12:42;;;;;;;6.00;4.05;;;;;;;30.15;51.93;100543.31;8358925;28;20040;-47
2022/09/12 10:16:52;;;;;;;3.80;3.38;;;;;;;29.72;53.08;100537.94;8390414;28;20447;-48
2022/09/12 10:20:52;;;;;;;4.57;3.42;;;;;;;30.70;51.64;100533.66;8390501;28;20053;-49
2022/09/12 10:24:57;;;;;;;5.57;3.45;;;;;;;30.46;50.60;100538.81;8390440;28;20119;-48
2022/09/12 10:29:04;;;;;;;4.60;3.00;;;;;;;31.00;50.56;100531.84;8385186;28;20033;-48
2022/09/12 10:33:10;;;;;;;2.80;2.60;;;;;;;30.36;50.01;100517.28;8363195;28;20033;-49
2022/09/12 10:37:29;;;;;;;2.50;2.30;;;;;;;29.84;50.63;100524.69;8364699;28;20029;-48
2022/09/12 10:41:39;;;;;;;4.18;2.42;;;;;;;31.07;48.50;100517.63;8390890;28;20038;-48
2022/09/12 10:45:40;;;;;;;2.53;2.22;;;;;;;30.77;48.76;100511.94;8396513;28;20048;-48
2022/09/12 10:49:41;;;;;;;5.18;2.63;;;;;;;30.09;50.16;100499.75;8396388;28;20525;-47
2022/09/12 10:53:45;;;;;;;3.03;2.80;;;;;;;30.17;49.76;100496.47;8394917;28;20033;-50
2022/09/12 10:58:09;;;;;;;4.38;2.20;;;;;;;30.68;48.45;100502.38;8395847;28;20361;-47
2022/09/12 11:02:36;;;;;;;2.33;2.13;;;;;;;30.76;48.26;100485.13;8369621;28;20060;-50
2022/09/12 11:06:56;;;;;;;3.20;2.25;;;;;;;31.69;47.69;100487.56;8352109;28;20060;-49
2022/09/12 11:15:52;;;;;;;4.93;2.03;;;;;;;31.46;46.48;100465.75;8399165;27;20490;-48
2022/09/12 11:20:30;;;;;;;2.85;2.17;;;;;;;30.51;48.36;100443.94;8380873;28;20045;-51
2022/09/12 11:24:56;;;;;;;2.10;1.90;;;;;;;31.58;46.71;100446.72;8381929;28;20505;-47
2022/09/12 11:29:23;;;;;;;3.67;2.60;;;;;;;31.21;46.18;100448.91;8378897;28;20033;-47
2022/09/12 11:33:46;;;;;;;2.60;2.40;;;;;;;30.75;47.18;100441.53;8377615;28;20040;-47
2022/09/12 11:38:07;;;;;;;;;;;;;;;30.89;47.23;100435.16;8381440;28;20041;-49
2022/09/12 11:42:18;;;;;;;4.60;2.38;;;;;;;31.66;46.06;100432.19;8378944;28;19917;-47
2022/09/12 11:46:41;;;;;;;2.33;2.10;;;;;;;31.27;45.92;100433.84;8378793;28;20055;-47
2022/09/12 11:50:41;;;;;;;2.45;2.25;;;;;;;31.06;45.97;100429.34;8375445;28;20033;-49
2022/09/12 11:55:06;;;;;;;4.90;2.10;;;;;;;33.02;44.33;100419.47;8381703;28;20087;-51
2022/09/12 11:59:20;;;;;;;4.38;2.38;;;;;;;32.45;44.61;100419.22;8376768;28;20275;-51
2022/09/12 12:03:30;;;;;;;;;;;;;;;32.42;45.38;100425.38;8381289;28;20041;-49
2022/09/12 12:07:40;;;;;;;2.10;1.88;;;;;;;33.15;44.24;100390.78;8375693;28;19916;-48
2022/09/12 12:11:47;;;;;;;1.58;1.42;;;;;;;32.08;44.22;100413.97;8375568;28;20040;-51
2022/09/12 12:15:53;;;;;;;3.88;1.85;;;;;;;32.21;44.34;100407.75;8375722;28;20056;-48
2022/09/12 12:19:59;;;;;;;5.38;2.03;;;;;;;33.11;43.16;100398.09;8376632;28;20506;-50
2022/09/12 12:24:12;;;;;;;4.10;2.05;;;;;;;32.57;44.20;100396.47;8389384;28;20373;-49
2022/09/12 12:28:49;;;;;;;1.80;1.70;;;;;;;32.38;43.28;100389.84;8357594;28;20037;-48
2022/09/12 12:32:49;;;;;;;3.53;1.33;;;;;;;31.17;43.71;100389.97;8349954;28;20098;-49
2022/09/12 12:36:50;;;;;;;1.20;1.10;;;;;;;29.11;46.48;100385.22;8352853;28;20036;-47
2022/09/12 12:40:50;;;;;;;1.10;0.90;;;;;;;28.08;47.50;100362.28;8356166;28;20525;-47
2022/09/12 12:44:51;;;;;;;2.90;1.17;;;;;;;27.60;48.29;100359.38;8355434;28;20041;-48
2022/09/12 12:49:06;;;;;;;3.05;1.83;;;;;;;27.60;50.21;100354.63;8354314;28;20045;-47
2022/09/12 12:53:26;;;;;;;2.13;1.90;;;;;;;27.40;52.53;100345.16;8354671;28;20490;-47
2022/09/12 12:57:48;;;;;;;3.92;2.30;;;;;;;27.07;53.13;100347.94;8352693;28;20036;-50
2022/09/12 13:01:54;;;;;;;3.33;2.60;;;;;;;26.63;53.33;100346.88;8352517;28;20026;-48
2022/09/12 13:06:01;;;;;;;4.10;1.75;;;;;;;26.53;54.18;100333.59;8352207;28;20043;-48
2022/09/12 13:10:04;;;;;;;3.10;2.22;;;;;;;26.94;53.60;100331.59;8354961;28;20048;-46
2022/09/12 13:14:26;;;;;;;2.72;2.50;;;;;;;26.70;53.48;100326.22;8356941;28;20179;-50
2022/09/12 13:18:31;;;;;;;2.80;2.47;;;;;;;26.62;54.12;100328.53;8352413;28;20100;-48
2022/09/12 13:22:43;;;;;;;3.00;2.38;;;;;;;26.41;54.71;100327.28;8350435;28;20514;-47
2022/09/12 13:26:46;;;;;;;2.38;2.17;;;;;;;26.82;53.00;100323.34;8350750;28;20565;-48
2022/09/12 13:31:00;;;;;;;5.28;2.35;;;;;;;26.78;54.64;100323.00;8349867;28;20095;-48
2022/09/12 13:35:15;;;;;;;3.67;2.08;;;;;;;26.70;53.86;100315.13;8350284;28;20134;-48
2022/09/12 13:39:55;;;;;;;1.75;1.65;;;;;;;27.08;51.63;100324.63;8348666;28;20045;-48
2022/09/12 13:43:56;;;;;;;3.28;1.80;;;;;;;27.02;51.42;100312.63;8348742;28;20043;-47
2022/09/12 13:48:00;;;;;;;2.30;1.90;;;;;;;27.02;51.21;100311.75;8358282;28;20036;-49
2022/09/12 13:52:06;;;;;;;1.88;1.55;;;;;;;27.04;50.40;100309.59;8358242;28;20033;-47
2022/09/12 13:56:07;;;;;;;2.22;1.83;;;;;;;26.76;52.19;100303.00;8357938;28;20036;-48
2022/09/12 14:00:18;;;;;;;3.08;1.92;;;;;;;26.60;53.01;100303.78;8357669;28;20036;-47
2022/09/12 14:05:24;;;;;;;2.05;1.85;;;;;;;26.77;53.19;100292.72;8354505;28;20036;-47
2022/09/12 14:08:46;;;;;;;2.05;1.85;;;;;;;26.73;52.17;100295.19;8352223;28;20037;-49
2022/09/12 14:12:49;;;;;;;2.30;1.80;;;;;;;26.91;52.53;100287.69;8351272;28;20434;-47
2022/09/12 14:16:51;;;;;;;3.20;2.20;;;;;;;26.84;53.59;100272.06;8350052;28;20441;-47
2022/09/12 14:20:55;;;;;;;8.90;1.60;;;;;;;27.19;51.13;100254.28;8350627;28;20040;-49
2022/09/12 14:24:58;;;;;;;3.28;1.73;;;;;;;27.20;51.60;100258.75;8348740;28;20033;-47
2022/09/12 14:29:00;;;;;;;2.45;1.60;;;;;;;27.01;51.15;100260.13;8354001;28;20041;-48
2022/09/12 14:33:16;;;;;;;5.90;1.65;;;;;;;26.71;51.18;100243.81;8353312;28;20114;-51
2022/09/12 14:37:17;;;;;;;2.72;1.67;;;;;;;26.88;53.26;100241.03;8352507;28;20055;-50
2022/09/12 14:41:24;;;;;;;3.00;1.63;;;;;;;26.96;52.69;100240.59;8354070;28;20028;-48
2022/09/12 14:45:30;;;;;;;5.43;1.98;;;;;;;27.09;52.41;100229.16;8356529;28;20095;-47
2022/09/12 14:49:34;;;;;;;3.08;1.77;;;;;;;26.94;52.66;100231.69;8355051;28;20033;-48
2022/09/12 14:53:35;;;;;;;;;;;;;;;26.89;54.57;100235.22;8349535;28;20048;-48
2022/09/12 14:57:39;;;;;;;2.30;1.80;;;;;;;27.04;52.70;100231.88;8345336;28;20051;-47
2022/09/12 15:01:39;;;;;;;19.80;3.23;;;;;;;27.05;54.40;100239.09;8348838;28;20451;-50
2022/09/12 15:05:48;;;;;;;4.60;2.20;;;;;;;26.76;54.14;100230.88;8351310;28;20587;-50
2022/09/12 15:09:49;;;;;;;2.50;2.17;;;;;;;26.56;54.84;100238.00;8355068;28;20283;-48
2022/09/12 15:13:50;;;;;;;2.92;2.10;;;;;;;26.49;55.10;100238.16;8354681;28;20033;-51
2022/09/12 15:17:50;;;;;;;5.47;2.85;;;;;;;26.39;56.11;100235.19;8352557;28;20136;-48
2022/09/12 15:21:51;;;;;;;2.05;1.88;;;;;;;26.30;55.84;100230.28;8354199;28;20124;-47
2022/09/12 15:25:51;;;;;;;5.25;2.50;;;;;;;26.30;56.58;100222.84;8354685;28;20044;-49
2022/09/12 15:29:52;;;;;;;2.92;2.58;;;;;;;26.26;57.11;100207.75;8353620;28;20048;-51
2022/09/12 15:33:54;;;;;;;5.20;3.15;;;;;;;26.17;56.58;100214.81;8355557;28;20048;-51
2022/09/12 15:37:55;;;;;;;4.32;2.42;;;;;;;26.13;56.75;100216.41;8350733;28;20152;-47
2022/09/12 15:41:55;;;;;;;9.05;3.38;;;;;;;26.16;58.37;100207.59;8353659;28;20045;-47
2022/09/12 15:45:58;;;;;;;2.88;2.42;;;;;;;26.03;57.66;100207.91;8338614;28;20382;-47
2022/09/12 15:49:58;;;;;;;3.47;2.50;;;;;;;26.00;57.57;100202.84;8333703;28;20029;-48
2022/09/12 15:54:01;;;;;;;11.90;2.70;;;;;;;26.01;57.37;100199.00;8346861;28;20029;-47
2022/09/12 15:58:01;;;;;;;3.13;2.83;;;;;;;26.00;57.51;100202.00;8350253;28;20276;-48
2022/09/12 16:02:02;;;;;;;6.35;2.85;;;;;;;25.97;57.72;100196.94;8347438;28;20033;-47
2022/09/12 16:06:03;;;;;;;2.22;2.03;;;;;;;25.98;58.62;100196.72;8356594;28;20071;-50
2022/09/12 16:10:05;;;;;;;3.25;2.60;;;;;;;26.04;57.43;100192.94;8356955;28;20040;-48
2022/09/12 16:14:05;;;;;;;3.08;2.38;;;;;;;25.98;57.51;100177.31;8352134;28;20044;-47
2022/09/12 16:18:06;;;;;;;4.38;2.50;;;;;;;26.01;57.47;100174.06;8356039;28;20033;-47
2022/09/12 16:22:06;;;;;;;7.43;2.47;;;;;;;26.01;58.30;100168.50;8346949;28;20394;-51
2022/09/12 16:26:07;;;;;;;4.47;2.72;;;;;;;26.01;57.26;100160.19;8332556;28;20095;-47
2022/09/12 16:30:08;;;;;;;3.13;2.22;;;;;;;26.07;57.45;100173.06;8341388;28;20034;-47
2022/09/12 16:34:10;;;;;;;3.53;2.25;;;;;;;25.97;57.10;100170.06;8349128;28;20054;-47
2022/09/12 16:38:10;;;;;;;6.75;2.70;;;;;;;25.90;57.32;100163.84;8350089;28;20041;-47
2022/09/12 16:42:10;;;;;;;5.32;2.67;;;;;;;25.91;58.13;100157.22;8352376;28;20036;-48
2022/09/12 16:46:14;;;;;;;5.03;2.75;;;;;;;25.99;56.24;100162.41;8353240;28;20033;-48
2022/09/12 16:50:15;;;;;;;5.03;2.65;;;;;;;25.96;56.62;100157.31;8357013;28;21123;-48
2022/09/12 16:54:16;;;;;;;4.43;2.20;;;;;;;25.88;57.24;100146.63;8355075;28;20313;-50
2022/09/12 16:58:16;;;;;;;5.00;2.60;;;;;;;25.86;57.23;100140.47;8352782;28;20493;-47
2022/09/12 17:02:17;;;;;;;2.65;1.90;;;;;;;25.80;58.05;100135.94;8348876;28;20037;-49
2022/09/12 17:06:18;;;;;;;9.90;2.08;;;;;;;25.69;57.53;100144.31;8348194;28;20033;-47
2022/09/12 17:10:19;;;;;;;5.03;2.05;;;;;;;25.75;59.09;100143.31;8350931;28;20113;-47
2022/09/12 17:14:19;;;;;;;5.78;4.80;;;;;;;25.39;61.08;100150.09;8355369;28;20040;-50
2022/09/12 17:18:20;;;;;;;4.35;2.65;;;;;;;25.42;60.84;100144.06;8353776;28;20091;-48
2022/09/12 17:22:21;;;;;;;2.53;2.00;;;;;;;25.31;60.35;100147.66;8353514;28;20047;-48
2022/09/12 17:26:21;;;;;;;4.57;2.10;;;;;;;25.07;62.47;100145.22;8342432;28;20130;-47
2022/09/12 17:30:22;;;;;;;2.95;2.10;;;;;;;24.66;65.04;100138.75;8345747;28;20091;-49
2022/09/12 17:34:22;;;;;;;3.67;2.00;;;;;;;24.42;64.97;100130.66;8350170;28;20044;-47
2022/09/12 17:38:23;;;;;;;3.70;2.67;;;;;;;24.11;67.14;100133.75;8348548;28;20784;-47
2022/09/12 17:42:23;;;;;;;5.10;2.38;;;;;;;23.53;70.79;100129.94;8353786;28;20405;-47
2022/09/12 17:46:31;;;;;;;5.88;2.45;;;;;;;23.36;71.65;100129.72;8347241;28;20234;-48
2022/09/12 17:50:39;;;;;;;3.10;2.20;;;;;;;23.32;71.99;100133.22;8351547;28;20041;-49
2022/09/12 17:54:41;;;;;;;2.65;2.05;;;;;;;23.41;69.87;100138.16;8344822;28;20041;-48
2022/09/12 17:58:41;;;;;;;3.80;2.45;;;;;;;22.83;72.99;100139.69;8352882;28;20045;-47
2022/09/12 18:02:42;;;;;;;3.80;2.28;;;;;;;22.78;75.00;100142.31;8353767;28;20048;-48
2022/09/12 18:06:47;;;;;;;2.85;2.40;;;;;;;22.83;75.08;100135.03;8345648;28;20040;-49
2022/09/12 18:10:49;;;;;;;4.28;3.05;;;;;;;22.74;73.98;100136.41;8378973;28;20037;-48
2022/09/12 18:14:49;;;;;;;4.80;2.92;;;;;;;22.55;74.43;100117.31;8358288;28;20536;-49
2022/09/12 18:18:50;;;;;;;2.88;2.55;;;;;;;22.64;74.32;100116.81;8346288;28;20091;-47
2022/09/12 18:22:50;;;;;;;3.88;2.90;;;;;;;22.64;74.58;100127.84;8347355;28;20055;-49
2022/09/12 18:26:51;;;;;;;2.87;2.53;;;;;;;22.16;78.18;100132.28;8345429;28;20415;-48
2022/09/12 18:30:51;;;;;;;4.63;2.95;;;;;;;21.77;79.30;100138.06;8347321;28;20048;-48
2022/09/12 18:34:52;;;;;;;4.15;3.13;;;;;;;21.39;81.30;100139.97;8342592;28;20049;-47
2022/09/12 18:38:53;;;;;;;8.80;3.70;;;;;;;21.18;81.44;100123.78;8345514;28;20345;-47
2022/09/12 18:42:53;;;;;;;6.13;2.90;;;;;;;21.62;77.28;100129.25;8339689;28;20319;-49
2022/09/12 18:46:53;;;;;;;6.07;3.15;;;;;;;21.62;79.41;100133.91;8341371;28;20126;-49
2022/09/12 18:51:00;;;;;;;6.57;3.10;;;;;;;21.45;78.55;100122.59;8340811;28;20041;-47
2022/09/12 18:55:01;;;;;;;7.07;2.92;;;;;;;21.69;75.67;100130.06;8345663;28;20414;-48
2022/09/12 18:59:04;;;;;;;3.58;2.35;;;;;;;21.73;74.90;100125.78;8345178;28;20029;-48